createdAt,value
2019-05-03T00:02:05.952Z,96.10
2019-05-03T00:04:32.133Z,96.00
2019-05-03T00:06:58.326Z,96.00
2019-05-03T00:09:24.500Z,96.10
2019-05-03T00:11:52.714Z,96.10
2019-05-03T00:14:21.803Z,96.20
2019-05-03T00:16:49.926Z,96.50
2019-05-03T00:19:16.214Z,96.30
2019-05-03T00:21:42.381Z,96.50
2019-05-03T00:24:08.605Z,96.40
2019-05-03T00:26:34.760Z,96.40
2019-05-03T00:29:02.166Z,96.60
2019-05-03T00:31:28.696Z,96.50
2019-05-03T00:33:56.780Z,96.50
2019-05-03T00:36:27.609Z,96.50
2019-05-03T00:38:55.735Z,96.60
2019-05-03T00:41:21.890Z,96.60
2019-05-03T00:43:48.067Z,96.60
2019-05-03T00:46:14.242Z,96.70
2019-05-03T00:48:40.419Z,96.60
2019-05-03T00:51:06.740Z,96.80
2019-05-03T00:53:33.097Z,96.70
2019-05-03T00:55:59.316Z,96.70
2019-05-03T00:58:25.502Z,96.80
2019-05-03T01:00:52.415Z,96.80
2019-05-03T01:03:19.437Z,97.00
2019-05-03T01:05:45.613Z,97.00
2019-05-03T01:08:12.646Z,97.10
2019-05-03T01:10:39.064Z,97.10
2019-05-03T01:13:05.241Z,97.10
2019-05-03T01:15:36.097Z,97.10
2019-05-03T01:18:04.377Z,97.10
2019-05-03T01:20:31.979Z,97.30
2019-05-03T01:22:58.220Z,97.10
2019-05-03T01:25:32.329Z,97.20
2019-05-03T01:27:52.462Z,97.10
2019-05-03T01:30:19.744Z,97.30
2019-05-03T01:32:45.910Z,97.30
2019-05-03T01:35:12.364Z,97.30
2019-05-03T01:37:38.788Z,97.40
2019-05-03T01:40:06.175Z,97.40
2019-05-03T01:42:32.408Z,97.00
2019-05-03T01:44:58.577Z,97.20
2019-05-03T01:47:26.693Z,97.40
2019-05-03T01:49:57.284Z,97.30
2019-05-03T01:52:25.370Z,97.50
2019-05-03T01:54:52.165Z,97.60
2019-05-03T01:57:18.449Z,97.60
2019-05-03T01:59:44.897Z,97.70
2019-05-03T02:02:25.066Z,97.50
2019-05-03T02:04:53.459Z,97.60
2019-05-03T02:07:19.668Z,97.60
2019-05-03T02:09:45.841Z,97.70
2019-05-03T02:12:12.736Z,97.60
2019-05-03T02:14:38.966Z,97.70
2019-05-03T02:17:05.164Z,97.70
2019-05-03T02:19:32.648Z,97.80
2019-05-03T02:21:59.224Z,97.70
2019-05-03T02:24:25.378Z,97.80
2019-05-03T02:26:52.950Z,97.60
2019-05-03T02:29:19.321Z,97.60
2019-05-03T02:31:45.491Z,97.70
2019-05-03T02:34:12.506Z,97.80
2019-05-03T02:36:39.037Z,97.60
2019-05-03T02:39:09.217Z,97.70
2019-05-03T02:41:35.404Z,97.60
2019-05-03T02:44:01.784Z,97.50
2019-05-03T02:46:29.858Z,97.70
2019-05-03T02:49:00.723Z,97.70
2019-05-03T02:51:26.885Z,97.90
2019-05-03T02:53:53.056Z,97.70
2019-05-03T02:56:22.562Z,97.80
2019-05-03T02:58:47.490Z,97.60
2019-05-03T03:01:16.191Z,97.50
2019-05-03T03:03:45.419Z,97.50
2019-05-03T03:06:15.617Z,97.60
2019-05-03T03:08:45.333Z,97.60
2019-05-03T03:11:10.828Z,97.60
2019-05-03T03:13:37.595Z,97.70
2019-05-03T03:16:06.977Z,97.60
2019-05-03T03:18:36.631Z,97.70
2019-05-03T03:21:05.814Z,97.70
2019-05-03T03:23:50.734Z,97.70
2019-05-03T03:26:33.292Z,97.50
2019-05-03T03:28:51.039Z,97.50
2019-05-03T03:31:21.008Z,97.50
2019-05-03T03:33:47.837Z,97.60
2019-05-03T03:36:42.156Z,97.40
2019-05-03T03:38:45.773Z,97.50
2019-05-03T03:41:11.420Z,97.40
2019-05-03T03:43:38.503Z,97.40
2019-05-03T03:46:05.455Z,97.40
2019-05-03T03:48:35.468Z,97.40
2019-05-03T03:51:05.023Z,97.50
2019-05-03T03:53:30.992Z,97.60
2019-05-03T03:55:58.186Z,97.50
2019-05-03T03:58:27.025Z,97.50
2019-05-03T04:00:52.463Z,97.60
2019-05-03T04:03:19.576Z,97.60
2019-05-03T04:05:46.742Z,97.40
2019-05-03T04:08:16.053Z,97.50
2019-05-03T04:10:41.793Z,97.40
2019-05-03T04:13:09.875Z,97.30
2019-05-03T04:15:56.595Z,97.30
2019-05-03T04:18:40.990Z,97.10
2019-05-03T04:21:07.311Z,96.90
2019-05-03T04:23:35.827Z,97.10
2019-05-03T04:26:02.030Z,97.10
2019-05-03T04:28:30.999Z,97.10
2019-05-03T04:30:57.174Z,97.30
2019-05-03T04:33:23.463Z,97.20
2019-05-03T04:35:49.756Z,97.30
2019-05-03T04:38:17.024Z,97.80
2019-05-03T04:40:45.349Z,97.40
2019-05-03T04:43:11.670Z,97.20
2019-05-03T04:45:37.890Z,97.30
2019-05-03T04:48:05.976Z,97.20
2019-05-03T04:50:36.334Z,97.20
2019-05-03T04:53:01.582Z,97.10
2019-05-03T04:55:27.772Z,97.00
2019-05-03T04:57:56.077Z,96.90
2019-05-03T05:00:21.973Z,96.90
2019-05-03T05:02:48.158Z,96.80
2019-05-03T05:05:15.356Z,97.00
2019-05-03T05:07:41.843Z,96.90
2019-05-03T05:10:08.677Z,96.80
2019-05-03T05:12:35.565Z,96.70
2019-05-03T05:15:05.244Z,96.60
2019-05-03T05:17:51.421Z,96.60
2019-05-03T05:20:24.793Z,96.80
2019-05-03T05:22:51.205Z,96.80
2019-05-03T05:25:20.039Z,96.80
2019-05-03T05:28:04.720Z,96.70
2019-05-03T05:30:32.216Z,96.60
2019-05-03T05:32:58.409Z,96.70
2019-05-03T05:35:24.887Z,96.50
2019-05-03T05:37:51.099Z,96.40
2019-05-03T05:40:19.679Z,96.00
2019-05-03T05:42:45.863Z,95.50
2019-05-03T05:45:12.219Z,95.30
2019-05-03T05:47:52.421Z,95.40
2019-05-03T05:50:25.287Z,94.90
2019-05-03T05:52:51.601Z,94.20
2019-05-03T05:55:36.236Z,93.80
2019-05-03T05:58:15.560Z,94.10
2019-05-03T06:00:46.774Z,94.40
2019-05-03T06:03:14.834Z,94.40
2019-05-03T06:05:41.021Z,94.70
2019-05-03T06:08:09.100Z,94.80
2019-05-03T06:10:39.978Z,95.40
2019-05-03T06:13:15.221Z,95.00
2019-05-03T06:15:55.399Z,95.40
2019-05-03T06:18:35.569Z,95.50
2019-05-03T06:21:04.628Z,95.30
2019-05-03T06:23:47.713Z,95.40
2019-05-03T06:26:34.513Z,95.20
2019-05-03T06:29:00.340Z,94.90
2019-05-03T06:31:30.936Z,94.60
2019-05-03T06:33:57.103Z,94.50
2019-05-03T06:36:24.352Z,94.70
2019-05-03T06:38:50.765Z,94.60
2019-05-03T06:41:17.025Z,95.00
2019-05-03T06:43:47.144Z,94.80
2019-05-03T06:46:11.284Z,94.60
2019-05-03T06:48:37.498Z,95.00
2019-05-03T06:51:08.681Z,95.00
2019-05-03T06:53:31.777Z,94.90
2019-05-03T06:55:57.934Z,94.60
2019-05-03T06:58:31.329Z,94.30
2019-05-03T07:00:57.388Z,94.10
2019-05-03T07:03:37.281Z,94.00
2019-05-03T07:06:17.422Z,94.20
2019-05-03T07:08:54.939Z,93.80
2019-05-03T07:11:21.415Z,93.80
2019-05-03T07:13:47.746Z,93.60
2019-05-03T07:16:14.954Z,93.70
2019-05-03T07:18:41.361Z,93.60
2019-05-03T07:21:07.554Z,93.80
2019-05-03T07:23:35.013Z,93.60
2019-05-03T07:26:01.407Z,93.60
2019-05-03T07:28:27.737Z,93.40
2019-05-03T07:30:54.413Z,93.40
2019-05-03T07:33:28.362Z,93.20
2019-05-03T07:35:54.804Z,92.90
2019-05-03T07:38:21.121Z,92.90
2019-05-03T07:40:47.286Z,93.00
2019-05-03T07:43:14.837Z,93.20
2019-05-03T07:45:41.133Z,93.10
2019-05-03T07:48:07.382Z,92.70
2019-05-03T07:50:35.756Z,92.70
2019-05-03T07:53:02.070Z,93.20
2019-05-03T07:55:46.780Z,92.70
2019-05-03T07:58:20.998Z,92.70
2019-05-03T08:01:02.922Z,92.90
2019-05-03T08:03:17.099Z,92.70
2019-05-03T08:05:45.427Z,93.20
2019-05-03T08:08:12.109Z,93.90
2019-05-03T08:10:38.377Z,93.80
2019-05-03T08:13:04.807Z,93.70
2019-05-03T08:15:32.041Z,92.50
2019-05-03T08:17:58.441Z,91.40
2019-05-03T08:20:24.918Z,90.80
2019-05-03T08:22:51.181Z,90.50
2019-05-03T08:25:17.490Z,90.80
2019-05-03T08:27:44.615Z,87.70
2019-05-03T08:30:14.752Z,86.00
2019-05-03T08:32:45.629Z,83.50
2019-05-03T08:35:19.559Z,82.90
2019-05-03T08:37:47.619Z,81.30
2019-05-03T08:40:15.609Z,79.80
2019-05-03T08:42:41.861Z,80.20
2019-05-03T08:45:08.236Z,84.00
2019-05-03T08:47:34.571Z,84.70
2019-05-03T08:50:00.742Z,85.60
2019-05-03T08:52:27.020Z,84.10
2019-05-03T08:54:54.982Z,86.50
2019-05-03T08:57:21.272Z,88.10
2019-05-03T08:59:47.458Z,89.90
2019-05-03T09:02:34.611Z,90.10
2019-05-03T09:05:01.014Z,88.00
2019-05-03T09:07:27.283Z,85.50
2019-05-03T09:09:55.393Z,83.80
2019-05-03T09:12:21.648Z,84.10
2019-05-03T09:14:48.626Z,84.10
2019-05-03T09:17:15.345Z,83.60
2019-05-03T09:19:41.607Z,80.90
2019-05-03T09:22:07.780Z,81.00
2019-05-03T09:24:35.146Z,82.50
2019-05-03T09:27:01.548Z,84.00
2019-05-03T09:29:40.001Z,86.50
2019-05-03T09:31:55.804Z,88.50
2019-05-03T09:34:21.969Z,90.80
2019-05-03T09:36:48.148Z,91.20
2019-05-03T09:39:14.877Z,90.80
2019-05-03T09:41:41.293Z,91.60
2019-05-03T09:44:07.477Z,92.30
2019-05-03T09:46:35.423Z,92.50
2019-05-03T09:49:11.025Z,92.50
2019-05-03T09:51:29.868Z,91.60
2019-05-03T09:53:57.975Z,91.90
2019-05-03T09:56:53.640Z,91.00
2019-05-03T09:59:11.125Z,90.80
2019-05-03T10:01:37.298Z,91.30
2019-05-03T10:04:05.414Z,90.70
2019-05-03T10:06:31.571Z,91.10
2019-05-03T10:08:57.753Z,91.60
2019-05-03T10:11:25.477Z,92.10
2019-05-03T10:13:51.816Z,91.80
2019-05-03T10:16:19.165Z,90.70
2019-05-03T10:18:46.087Z,86.80
2019-05-03T10:21:14.678Z,85.00
2019-05-03T10:23:41.444Z,80.80
2019-05-03T10:26:08.635Z,76.30
2019-05-03T10:28:35.100Z,77.50
2019-05-03T10:31:01.493Z,78.80
2019-05-03T10:33:35.734Z,83.10
2019-05-03T10:36:02.411Z,86.40
2019-05-03T10:38:28.581Z,85.70
2019-05-03T10:40:55.058Z,87.00
2019-05-03T10:43:21.422Z,86.70
2019-05-03T10:45:47.682Z,85.80
2019-05-03T10:48:15.482Z,83.50
2019-05-03T10:50:42.921Z,82.20
2019-05-03T10:53:28.500Z,78.70
2019-05-03T10:56:14.103Z,77.80
2019-05-03T10:58:45.220Z,79.30
2019-05-03T11:01:11.266Z,79.60
2019-05-03T11:03:38.888Z,80.40
2019-05-03T11:06:05.504Z,81.70
2019-05-03T11:08:31.733Z,80.20
2019-05-03T11:10:57.915Z,80.70
2019-05-03T11:13:26.277Z,81.10
2019-05-03T11:15:52.182Z,81.90
2019-05-03T11:18:18.349Z,81.70
2019-05-03T11:20:45.283Z,80.30
2019-05-03T11:23:11.690Z,80.00
2019-05-03T11:25:37.905Z,78.40
2019-05-03T11:28:09.041Z,77.10
2019-05-03T11:30:35.716Z,76.50
2019-05-03T11:33:03.810Z,73.70
2019-05-03T11:35:31.907Z,72.10
2019-05-03T11:37:59.997Z,69.60
2019-05-03T11:40:26.329Z,68.00
2019-05-03T11:42:55.380Z,61.50
2019-05-03T11:45:21.664Z,58.30
2019-05-03T11:47:47.843Z,56.60
2019-05-03T11:50:14.857Z,58.00
2019-05-03T11:52:41.313Z,55.70
2019-05-03T11:55:11.387Z,57.20
2019-05-03T11:57:36.810Z,61.00
2019-05-03T12:00:07.749Z,62.30
2019-05-03T12:02:35.934Z,63.10
2019-05-03T12:05:06.930Z,65.10
2019-05-03T12:07:39.595Z,63.80
2019-05-03T12:10:01.665Z,63.40
2019-05-03T12:12:31.880Z,65.10
2019-05-03T12:14:58.158Z,64.10
2019-05-03T12:17:29.263Z,65.80
2019-05-03T12:19:57.190Z,66.90
2019-05-03T12:22:22.893Z,63.50
2019-05-03T12:24:50.671Z,62.20
2019-05-03T12:27:17.026Z,62.00
2019-05-03T12:29:44.752Z,63.90
2019-05-03T12:32:11.125Z,61.90
2019-05-03T12:34:37.289Z,65.50
2019-05-03T12:37:05.151Z,65.60
2019-05-03T12:39:35.776Z,66.00
2019-05-03T12:42:01.749Z,67.40
2019-05-03T12:44:28.026Z,70.50
2019-05-03T12:46:54.193Z,72.80
2019-05-03T12:49:20.364Z,74.50
2019-05-03T12:51:46.561Z,75.70
2019-05-03T12:54:14.893Z,80.60
2019-05-03T12:56:41.091Z,83.70
2019-05-03T12:59:09.301Z,85.20
2019-05-03T13:01:41.901Z,85.70
2019-05-03T13:04:12.777Z,85.10
2019-05-03T13:06:40.869Z,83.50
2019-05-03T13:09:09.180Z,84.50
2019-05-03T13:11:37.146Z,84.80
2019-05-03T13:14:04.785Z,84.50
2019-05-03T13:16:31.510Z,83.70
2019-05-03T13:18:57.700Z,81.00
2019-05-03T13:21:25.268Z,80.20
2019-05-03T13:23:51.588Z,80.60
2019-05-03T13:26:17.742Z,81.30
2019-05-03T13:28:45.667Z,81.40
2019-05-03T13:31:12.021Z,81.40
2019-05-03T13:33:38.216Z,80.80
2019-05-03T13:36:04.501Z,83.10
2019-05-03T13:38:30.656Z,83.50
2019-05-03T13:40:57.237Z,83.00
2019-05-03T13:43:23.424Z,84.20
2019-05-03T13:45:49.591Z,84.30
2019-05-03T13:48:20.996Z,85.20
2019-05-03T13:50:44.652Z,84.50
2019-05-03T13:53:12.597Z,83.90
2019-05-03T13:55:38.915Z,82.60
2019-05-03T13:58:05.338Z,81.10
2019-05-03T14:00:31.659Z,80.40
2019-05-03T14:02:57.919Z,78.70
2019-05-03T14:05:24.526Z,77.80
2019-05-03T14:07:50.875Z,79.00
2019-05-03T14:10:17.288Z,78.00
2019-05-03T14:12:45.379Z,79.20
2019-05-03T14:15:11.848Z,79.10
2019-05-03T14:17:38.012Z,81.30
2019-05-03T14:20:10.937Z,81.80
2019-05-03T14:22:39.412Z,82.30
2019-05-03T14:25:15.165Z,82.90
2019-05-03T14:27:42.485Z,83.40
2019-05-03T14:30:09.076Z,83.30
2019-05-03T14:32:36.132Z,83.80
2019-05-03T14:35:04.397Z,84.90
2019-05-03T14:37:30.639Z,84.50
2019-05-03T14:39:56.794Z,84.70
2019-05-03T14:42:24.633Z,85.40
2019-05-03T14:44:50.966Z,86.20
2019-05-03T14:47:17.194Z,86.70
2019-05-03T14:49:43.349Z,85.40
2019-05-03T14:52:09.571Z,85.60
2019-05-03T14:54:37.744Z,86.40
2019-05-03T14:57:05.925Z,87.60
2019-05-03T14:59:50.576Z,87.90
2019-05-03T15:02:18.674Z,89.80
2019-05-03T15:04:44.849Z,90.10
2019-05-03T15:07:11.067Z,90.20
2019-05-03T15:09:37.352Z,90.00
2019-05-03T15:12:05.369Z,90.50
2019-05-03T15:14:31.642Z,90.40
2019-05-03T15:16:57.807Z,90.00
2019-05-03T15:19:25.422Z,88.70
2019-05-03T15:21:54.776Z,89.10
2019-05-03T15:24:21.152Z,89.30
2019-05-03T15:26:47.584Z,88.80
2019-05-03T15:29:15.608Z,89.00
2019-05-03T15:31:41.960Z,89.20
2019-05-03T15:34:08.347Z,89.20
2019-05-03T15:36:34.596Z,90.00
2019-05-03T15:39:00.759Z,90.40
2019-05-03T15:41:27.066Z,90.60
2019-05-03T15:44:05.307Z,90.60
2019-05-03T15:46:33.584Z,90.90
2019-05-03T15:49:01.746Z,90.20
2019-05-03T15:51:27.953Z,90.20
2019-05-03T15:53:55.138Z,90.10
2019-05-03T15:56:21.905Z,90.20
2019-05-03T15:58:48.137Z,90.10
2019-05-03T16:01:15.525Z,89.00
2019-05-03T16:03:41.744Z,89.10
2019-05-03T16:06:08.224Z,89.40
2019-05-03T16:08:49.256Z,89.70
2019-05-03T16:11:15.439Z,89.20
2019-05-03T16:13:41.593Z,89.70
2019-05-03T16:16:07.796Z,89.60
2019-05-03T16:18:35.305Z,89.50
2019-05-03T16:21:01.635Z,90.00
2019-05-03T16:23:27.825Z,90.00
2019-05-03T16:25:54.484Z,90.40
2019-05-03T16:28:24.727Z,90.70
2019-05-03T16:30:56.279Z,91.10
2019-05-03T16:33:27.575Z,90.40
2019-05-03T16:35:51.069Z,90.60
2019-05-03T16:38:18.252Z,90.80
2019-05-03T16:40:45.167Z,90.70
2019-05-03T16:43:11.465Z,90.80
2019-05-03T16:45:37.795Z,90.80
2019-05-03T16:48:04.515Z,90.70
2019-05-03T16:50:31.821Z,90.70
2019-05-03T16:52:58.091Z,91.30
2019-05-03T16:55:25.697Z,91.40
2019-05-03T16:57:52.380Z,91.20
2019-05-03T17:00:19.115Z,91.10
2019-05-03T17:02:45.513Z,91.20
2019-05-03T17:05:17.058Z,91.00
2019-05-03T17:07:51.156Z,91.00
2019-05-03T17:10:36.173Z,90.90
2019-05-03T17:13:02.443Z,90.90
2019-05-03T17:15:28.909Z,90.80
2019-05-03T17:17:55.100Z,90.90
2019-05-03T17:20:21.485Z,91.30
2019-05-03T17:22:48.073Z,91.40
2019-05-03T17:25:15.034Z,91.60
2019-05-03T17:27:41.441Z,91.80
2019-05-03T17:30:08.022Z,91.80
2019-05-03T17:32:35.741Z,91.80
2019-05-03T17:35:05.308Z,92.20
2019-05-03T17:37:31.589Z,92.10
2019-05-03T17:40:05.490Z,92.40
2019-05-03T17:42:50.891Z,92.80
2019-05-03T17:45:19.085Z,92.70
2019-05-03T17:47:45.463Z,92.70
2019-05-03T17:50:11.925Z,92.70
2019-05-03T17:52:45.802Z,93.00
2019-05-03T17:55:29.145Z,92.90
2019-05-03T17:57:58.317Z,92.80
2019-05-03T18:00:41.586Z,93.20
2019-05-03T18:03:08.978Z,92.90
2019-05-03T18:05:37.042Z,93.00
2019-05-03T18:08:05.171Z,92.90
2019-05-03T18:10:33.319Z,93.10
2019-05-03T18:12:59.499Z,93.30
2019-05-03T18:15:25.657Z,93.40
2019-05-03T18:17:52.300Z,93.40
2019-05-03T18:20:18.467Z,93.60
2019-05-03T18:22:44.640Z,93.60
2019-05-03T18:25:11.124Z,93.50
2019-05-03T18:27:37.355Z,93.60
2019-05-03T18:30:06.722Z,93.80
2019-05-03T18:32:34.428Z,93.60
2019-05-03T18:35:00.896Z,93.40
2019-05-03T18:37:28.522Z,93.40
2019-05-03T18:39:54.929Z,93.50
2019-05-03T18:42:24.552Z,93.50
2019-05-03T18:44:52.818Z,93.70
2019-05-03T18:47:20.905Z,94.00
2019-05-03T18:49:47.076Z,93.80
2019-05-03T18:52:14.943Z,93.60
2019-05-03T18:54:41.240Z,93.50
2019-05-03T18:57:07.431Z,93.50
2019-05-03T18:59:33.726Z,93.80
2019-05-03T19:01:59.924Z,93.80
2019-05-03T19:04:34.672Z,93.60
2019-05-03T19:07:04.325Z,93.60
2019-05-03T19:09:43.204Z,93.80
2019-05-03T19:12:20.374Z,94.20
2019-05-03T19:14:46.805Z,94.00
2019-05-03T19:17:15.394Z,93.80
2019-05-03T19:19:44.670Z,93.90
2019-05-03T19:22:11.140Z,94.20
2019-05-03T19:24:37.328Z,94.40
2019-05-03T19:27:05.499Z,94.40
2019-05-03T19:29:31.694Z,94.50
2019-05-03T19:31:58.107Z,94.60
2019-05-03T19:34:26.777Z,94.70
2019-05-03T19:36:52.364Z,94.50
2019-05-03T19:39:18.625Z,94.50
2019-05-03T19:41:44.967Z,94.70
2019-05-03T19:44:11.304Z,95.00
2019-05-03T19:46:37.493Z,94.70
2019-05-03T19:49:05.023Z,94.50
2019-05-03T19:51:31.492Z,94.60
2019-05-03T19:53:57.644Z,94.50
2019-05-03T19:56:25.527Z,94.40
2019-05-03T19:58:55.231Z,94.50
2019-05-03T20:01:26.512Z,94.20
2019-05-03T20:04:03.594Z,94.60
2019-05-03T20:06:48.023Z,94.40
2019-05-03T20:09:17.076Z,94.30
2019-05-03T20:11:43.247Z,94.50
2019-05-03T20:14:09.427Z,94.40
2019-05-03T20:16:35.632Z,94.50
2019-05-03T20:19:14.907Z,94.50
2019-05-03T20:21:29.988Z,94.40
2019-05-03T20:23:56.163Z,94.50
2019-05-03T20:26:22.325Z,94.40
2019-05-03T20:28:48.507Z,94.50
2019-05-03T20:31:14.670Z,94.40
2019-05-03T20:33:40.845Z,94.50
2019-05-03T20:36:06.994Z,94.50
2019-05-03T20:38:33.185Z,94.50
2019-05-03T20:40:59.339Z,94.50
2019-05-03T20:43:35.142Z,94.50
2019-05-03T20:46:06.372Z,94.50
2019-05-03T20:48:34.385Z,94.40
2019-05-03T20:51:00.623Z,94.40
2019-05-03T20:53:26.805Z,94.50
2019-05-03T20:55:54.590Z,94.50
2019-05-03T20:58:21.016Z,94.60
2019-05-03T21:00:47.208Z,94.60
2019-05-03T21:03:15.239Z,94.80
2019-05-03T21:05:41.560Z,95.00
2019-05-03T21:08:07.732Z,94.90
2019-05-03T21:10:34.015Z,94.70
2019-05-03T21:13:00.169Z,94.80
2019-05-03T21:15:28.264Z,94.70
2019-05-03T21:18:08.268Z,94.90
2019-05-03T21:20:36.325Z,94.70
2019-05-03T21:23:03.248Z,94.60
2019-05-03T21:25:31.339Z,95.00
2019-05-03T21:27:57.508Z,94.60
2019-05-03T21:30:24.641Z,94.60
2019-05-03T21:32:51.105Z,94.60
2019-05-03T21:35:17.264Z,94.50
2019-05-03T21:37:45.260Z,94.60
2019-05-03T21:40:11.722Z,94.50
2019-05-03T21:42:37.883Z,94.50
2019-05-03T21:45:04.868Z,94.70
2019-05-03T21:47:35.016Z,94.50
2019-05-03T21:50:01.883Z,94.30
2019-05-03T21:52:28.032Z,94.40
2019-05-03T21:54:54.478Z,94.70
2019-05-03T21:57:22.280Z,94.90
2019-05-03T21:59:48.513Z,94.90
2019-05-03T22:02:15.425Z,95.00
2019-05-03T22:04:41.757Z,95.40
2019-05-03T22:07:07.937Z,95.00
2019-05-03T22:09:34.856Z,95.20
2019-05-03T22:12:02.840Z,95.20
2019-05-03T22:14:30.948Z,95.20
2019-05-03T22:17:11.164Z,95.00
2019-05-03T22:19:37.361Z,95.00
2019-05-03T22:22:25.404Z,95.00
2019-05-03T22:24:55.421Z,94.90
2019-05-03T22:27:22.219Z,94.60
2019-05-03T22:29:48.389Z,94.90
2019-05-03T22:32:15.583Z,94.80
2019-05-03T22:34:41.875Z,94.70
2019-05-03T22:37:08.062Z,94.90
2019-05-03T22:39:34.216Z,94.80
2019-05-03T22:42:00.441Z,94.80
2019-05-03T22:44:26.896Z,94.90
2019-05-03T22:46:54.980Z,94.60
2019-05-03T22:49:21.188Z,94.60
2019-05-03T22:51:47.483Z,94.20
2019-05-03T22:54:15.396Z,94.70
2019-05-03T22:56:41.730Z,94.90
2019-05-03T22:59:08.258Z,95.30
2019-05-03T23:01:35.279Z,95.50
2019-05-03T23:04:01.621Z,95.80
2019-05-03T23:06:27.783Z,95.80
2019-05-03T23:08:55.958Z,95.90
2019-05-03T23:11:22.024Z,95.60
2019-05-03T23:13:50.146Z,95.40
2019-05-03T23:16:16.312Z,95.30
2019-05-03T23:18:44.256Z,95.30
2019-05-03T23:21:12.474Z,95.30
2019-05-03T23:23:48.990Z,95.40
2019-05-03T23:26:18.961Z,95.50
2019-05-03T23:28:46.240Z,95.50
2019-05-03T23:31:14.575Z,95.50
2019-05-03T23:33:40.950Z,95.90
2019-05-03T23:36:07.108Z,95.60
2019-05-03T23:38:33.362Z,95.50
2019-05-03T23:40:59.541Z,95.40
2019-05-03T23:43:25.717Z,95.20
2019-05-03T23:45:51.885Z,95.30
2019-05-03T23:48:18.085Z,95.30
2019-05-03T23:50:44.658Z,95.40
2019-05-03T23:53:10.957Z,95.60
2019-05-03T23:55:39.016Z,96.00
2019-05-03T23:58:05.205Z,96.30
